createdAt,value
2022-11-27T00:01:36.046Z,87.37
2022-11-27T00:04:07.560Z,87.40
2022-11-27T00:06:36.091Z,87.07
2022-11-27T00:09:08.350Z,86.92
2022-11-27T00:16:05.127Z,86.73
2022-11-27T00:18:33.270Z,86.50
2022-11-27T00:21:12.935Z,86.36
2022-11-27T00:23:40.709Z,86.35
2022-11-27T00:26:08.679Z,86.59
2022-11-27T00:28:39.366Z,86.56
2022-11-27T00:31:13.393Z,86.36
2022-11-27T00:33:43.495Z,86.30
2022-11-27T00:40:30.365Z,85.94
2022-11-27T00:42:57.667Z,85.66
2022-11-27T00:45:25.237Z,85.72
2022-11-27T00:47:52.668Z,85.63
2022-11-27T00:50:20.132Z,85.45
2022-11-27T00:52:50.127Z,85.43
2022-11-27T00:55:17.725Z,85.32
2022-11-27T00:57:47.627Z,85.26
2022-11-27T01:00:15.749Z,85.07
2022-11-27T01:02:45.480Z,85.03
2022-11-27T01:10:04.244Z,84.86
2022-11-27T01:12:31.787Z,84.73
2022-11-27T01:14:59.167Z,84.33
2022-11-27T01:17:26.949Z,84.27
2022-11-27T01:19:54.363Z,84.26
2022-11-27T01:22:21.834Z,84.17
2022-11-27T01:24:51.874Z,84.09
2022-11-27T01:27:19.404Z,83.87
2022-11-27T01:34:09.053Z,83.60
2022-11-27T01:36:36.821Z,83.43
2022-11-27T01:39:05.538Z,83.44
2022-11-27T01:41:41.481Z,83.24
2022-11-27T01:44:24.182Z,83.09
2022-11-27T01:46:53.427Z,83.07
2022-11-27T01:49:40.061Z,82.83
2022-11-27T01:52:19.236Z,82.87
2022-11-27T01:59:12.744Z,82.58
2022-11-27T02:01:40.186Z,82.54
2022-11-27T02:04:07.871Z,82.36
2022-11-27T02:06:35.390Z,82.08
2022-11-27T02:09:03.996Z,81.81
2022-11-27T02:11:42.538Z,81.81
2022-11-27T02:14:15.567Z,81.71
2022-11-27T02:17:03.698Z,81.66
2022-11-27T02:24:20.969Z,81.32
2022-11-27T02:27:25.911Z,81.00
2022-11-27T02:29:59.540Z,81.20
2022-11-27T02:32:40.727Z,81.03
2022-11-27T02:35:26.487Z,80.84
2022-11-27T02:38:01.174Z,80.90
2022-11-27T02:48:23.392Z,80.56
2022-11-27T02:50:52.398Z,80.41
2022-11-27T02:53:25.835Z,80.31
2022-11-27T02:55:55.038Z,80.06
2022-11-27T02:58:27.336Z,79.94
2022-11-27T03:00:56.880Z,79.83
2022-11-27T03:03:29.699Z,79.52
2022-11-27T03:06:06.078Z,79.36
2022-11-27T03:08:44.195Z,79.39
2022-11-27T03:15:42.484Z,79.10
2022-11-27T03:18:29.501Z,79.04
2022-11-27T03:21:28.966Z,78.94
2022-11-27T03:23:58.358Z,78.69
2022-11-27T03:26:28.854Z,78.58
2022-11-27T03:29:02.677Z,78.57
2022-11-27T03:31:33.090Z,78.46
2022-11-27T03:34:02.179Z,78.24
2022-11-27T03:41:02.985Z,78.12
2022-11-27T03:43:41.745Z,77.91
2022-11-27T03:46:17.561Z,77.61
2022-11-27T03:49:20.032Z,77.52
2022-11-27T03:52:04.010Z,77.44
2022-11-27T03:54:44.505Z,77.30
2022-11-27T03:57:23.309Z,76.90
2022-11-27T03:59:56.827Z,76.80
2022-11-27T04:02:40.520Z,76.82
2022-11-27T04:09:35.175Z,76.70
2022-11-27T04:12:02.966Z,76.52
2022-11-27T04:14:32.410Z,76.33
2022-11-27T04:16:59.871Z,76.45
2022-11-27T04:19:27.266Z,76.30
2022-11-27T04:26:52.155Z,76.11
2022-11-27T04:29:19.641Z,76.19
2022-11-27T04:31:47.195Z,76.15
2022-11-27T04:34:14.756Z,75.98
2022-11-27T04:36:42.585Z,75.97
2022-11-27T04:39:09.964Z,75.85
2022-11-27T04:41:37.339Z,75.65
2022-11-27T04:44:07.129Z,75.59
2022-11-27T04:46:34.897Z,75.60
2022-11-27T04:49:02.394Z,75.61
2022-11-27T04:51:30.213Z,75.55
2022-11-27T04:53:57.705Z,75.58
2022-11-27T04:56:25.153Z,75.65
2022-11-27T05:03:14.150Z,75.80
2022-11-27T05:05:41.597Z,75.48
2022-11-27T05:08:10.215Z,75.55
2022-11-27T05:10:37.620Z,75.49
2022-11-27T05:13:04.914Z,75.40
2022-11-27T05:15:34.609Z,75.60
2022-11-27T05:18:04.305Z,75.58
2022-11-27T05:20:33.924Z,75.55
2022-11-27T05:27:22.070Z,75.35
2022-11-27T05:29:49.459Z,75.22
2022-11-27T05:32:17.055Z,75.34
2022-11-27T05:34:44.429Z,75.18
2022-11-27T05:37:19.202Z,75.35
2022-11-27T05:39:47.504Z,75.16
2022-11-27T05:42:14.872Z,75.08
2022-11-27T05:44:47.215Z,74.95
2022-11-27T05:47:17.061Z,75.74
2022-11-27T05:49:45.872Z,75.60
2022-11-27T05:56:33.288Z,76.42
2022-11-27T05:59:02.860Z,76.97
2022-11-27T06:01:30.936Z,77.33
2022-11-27T06:04:01.744Z,77.94
2022-11-27T06:06:32.685Z,78.54
2022-11-27T06:09:02.379Z,78.97
2022-11-27T06:11:29.665Z,79.24
2022-11-27T06:13:56.992Z,79.46
2022-11-27T06:16:24.953Z,79.65
2022-11-27T06:18:54.239Z,79.86
2022-11-27T06:21:27.338Z,79.97
2022-11-27T06:23:58.899Z,80.42
2022-11-27T06:26:28.818Z,80.57
2022-11-27T06:28:57.707Z,80.89
2022-11-27T06:31:27.990Z,81.09
2022-11-27T06:33:56.648Z,81.17
2022-11-27T06:36:32.151Z,81.65
2022-11-27T06:39:02.194Z,81.89
2022-11-27T06:41:32.421Z,82.09
2022-11-27T06:44:00.839Z,81.95
2022-11-27T06:46:30.192Z,81.98
2022-11-27T06:49:01.020Z,81.82
2022-11-27T06:51:33.362Z,81.83
2022-11-27T06:54:02.093Z,81.96
2022-11-27T06:56:31.199Z,81.88
2022-11-27T06:59:00.957Z,81.81
2022-11-27T07:01:30.897Z,81.93
2022-11-27T07:04:00.563Z,81.88
2022-11-27T07:06:28.694Z,81.90
2022-11-27T07:08:56.252Z,82.07
2022-11-27T07:11:26.714Z,81.88
2022-11-27T07:13:59.887Z,81.95
2022-11-27T07:16:29.183Z,82.05
2022-11-27T07:19:00.859Z,82.80
2022-11-27T07:21:29.028Z,82.90
2022-11-27T07:28:27.009Z,83.11
2022-11-27T07:30:55.970Z,84.02
2022-11-27T07:33:24.468Z,84.09
2022-11-27T07:36:10.402Z,83.78
2022-11-27T07:38:39.172Z,80.17
2022-11-27T07:41:07.510Z,78.60
2022-11-27T07:43:35.446Z,78.96
2022-11-27T07:46:08.402Z,77.99
2022-11-27T07:52:50.408Z,77.49
2022-11-27T07:55:17.932Z,77.32
2022-11-27T07:57:45.530Z,76.80
2022-11-27T08:00:13.518Z,76.45
2022-11-27T08:02:41.035Z,76.04
2022-11-27T08:05:12.955Z,75.57
2022-11-27T08:07:41.534Z,75.26
2022-11-27T08:10:09.148Z,75.82
2022-11-27T08:17:01.904Z,75.05
2022-11-27T08:19:30.059Z,74.70
2022-11-27T08:22:00.317Z,75.18
2022-11-27T08:24:27.715Z,75.82
2022-11-27T08:26:55.176Z,76.54
2022-11-27T08:29:22.640Z,77.12
2022-11-27T08:31:50.209Z,77.43
2022-11-27T08:34:17.648Z,77.85
2022-11-27T08:41:16.416Z,80.58
2022-11-27T08:43:44.108Z,81.55
2022-11-27T08:46:11.988Z,81.86
2022-11-27T08:48:40.243Z,82.59
2022-11-27T08:51:12.739Z,83.56
2022-11-27T08:53:41.862Z,84.26
2022-11-27T08:56:21.549Z,84.89
2022-11-27T08:58:49.565Z,85.61
2022-11-27T09:01:19.137Z,85.33
2022-11-27T09:03:46.922Z,85.32
2022-11-27T09:06:17.637Z,86.09
2022-11-27T09:08:45.722Z,87.48
2022-11-27T09:11:15.213Z,88.26
2022-11-27T09:18:28.073Z,90.63
2022-11-27T09:21:00.570Z,91.58
2022-11-27T09:23:29.363Z,92.14
2022-11-27T09:26:03.155Z,92.33
2022-11-27T09:28:32.108Z,92.19
2022-11-27T09:31:02.249Z,92.78
2022-11-27T09:33:32.291Z,93.38
2022-11-27T09:36:05.472Z,93.88
2022-11-27T09:38:33.269Z,94.46
2022-11-27T09:41:07.466Z,94.84
2022-11-27T09:43:42.513Z,95.09
2022-11-27T09:46:17.722Z,95.46
2022-11-27T09:48:49.319Z,96.21
2022-11-27T09:51:37.002Z,96.31
2022-11-27T09:54:16.022Z,95.74
2022-11-27T09:56:48.155Z,94.62
2022-11-27T09:59:19.236Z,94.67
2022-11-27T10:01:50.832Z,92.80
2022-11-27T10:04:21.169Z,93.53
2022-11-27T10:07:03.932Z,94.72
2022-11-27T10:09:56.330Z,95.69
2022-11-27T10:12:42.431Z,96.63
2022-11-27T10:15:19.051Z,97.35
2022-11-27T10:18:02.775Z,97.63
2022-11-27T10:20:51.433Z,96.90
2022-11-27T10:23:51.702Z,96.36
2022-11-27T10:26:32.090Z,96.14
2022-11-27T10:29:11.057Z,96.34
2022-11-27T10:31:54.268Z,95.89
2022-11-27T10:34:41.902Z,97.23
2022-11-27T10:37:28.266Z,97.16
2022-11-27T10:40:16.342Z,97.20
2022-11-27T10:42:55.865Z,96.42
2022-11-27T10:45:47.011Z,96.12
2022-11-27T10:48:15.525Z,96.26
2022-11-27T10:50:43.896Z,96.49
2022-11-27T10:53:32.806Z,96.50
2022-11-27T10:56:08.534Z,96.78
2022-11-27T10:58:40.228Z,96.75
2022-11-27T11:01:09.587Z,97.57
2022-11-27T11:03:37.638Z,97.74
2022-11-27T11:06:22.690Z,97.71
2022-11-27T11:09:31.945Z,98.12
2022-11-27T11:12:17.476Z,97.97
2022-11-27T11:14:54.009Z,97.84
2022-11-27T11:17:34.703Z,98.19
2022-11-27T11:20:25.506Z,98.55
2022-11-27T11:27:00.936Z,100.00
2022-11-27T11:34:08.894Z,100.00
2022-11-27T11:37:56.647Z,100.00
2022-11-27T11:41:16.173Z,100.00
2022-11-27T11:52:58.679Z,100.00
2022-11-27T12:00:32.937Z,100.00
2022-11-27T12:15:59.588Z,100.00
2022-11-27T12:30:36.194Z,100.00
2022-11-27T12:34:13.711Z,100.00
2022-11-27T12:53:06.182Z,100.00
2022-11-27T12:56:31.901Z,100.00
2022-11-27T12:59:04.727Z,100.00
2022-11-27T13:01:47.881Z,98.95
2022-11-27T13:04:24.586Z,98.20
2022-11-27T13:06:59.538Z,97.51
2022-11-27T13:09:42.670Z,97.09
2022-11-27T13:12:17.473Z,96.58
2022-11-27T13:14:52.896Z,95.95
2022-11-27T13:17:21.483Z,95.37
2022-11-27T13:19:54.169Z,95.00
2022-11-27T13:22:36.263Z,94.72
2022-11-27T13:25:04.821Z,94.43
2022-11-27T13:27:39.599Z,93.89
2022-11-27T13:30:11.999Z,93.62
2022-11-27T13:32:49.823Z,93.36
2022-11-27T13:35:26.929Z,93.40
2022-11-27T13:38:12.906Z,93.24
2022-11-27T13:40:43.626Z,93.34
2022-11-27T13:43:31.330Z,92.02
2022-11-27T13:46:19.525Z,87.98
2022-11-27T13:48:53.467Z,85.90
2022-11-27T13:51:35.413Z,84.84
2022-11-27T13:54:22.285Z,83.15
2022-11-27T13:56:52.039Z,82.83
2022-11-27T13:59:22.650Z,82.61
2022-11-27T14:02:03.307Z,86.72
2022-11-27T14:04:34.045Z,90.43
2022-11-27T14:07:03.936Z,91.82
2022-11-27T14:09:43.255Z,93.72
2022-11-27T14:12:19.216Z,95.78
2022-11-27T14:15:17.962Z,96.69
2022-11-27T14:17:47.547Z,98.34
2022-11-27T14:20:17.955Z,99.47
2022-11-27T14:23:11.690Z,100.00
2022-11-27T14:25:41.622Z,100.00
2022-11-27T14:28:21.806Z,100.00
2022-11-27T14:30:54.769Z,100.00
2022-11-27T14:33:31.216Z,100.00
2022-11-27T14:36:07.690Z,100.00
2022-11-27T14:38:35.504Z,100.00
2022-11-27T14:41:17.675Z,100.00
2022-11-27T14:43:45.259Z,100.00
2022-11-27T14:46:50.157Z,100.00
2022-11-27T14:49:24.155Z,100.00
2022-11-27T14:51:52.645Z,100.00
2022-11-27T14:54:25.684Z,100.00
2022-11-27T14:56:56.713Z,100.00
2022-11-27T14:59:25.043Z,100.00
2022-11-27T15:02:15.429Z,100.00
2022-11-27T15:04:44.733Z,100.00
2022-11-27T15:07:22.969Z,100.00
2022-11-27T15:09:54.308Z,100.00
2022-11-27T15:12:32.420Z,100.00
2022-11-27T15:15:03.615Z,100.00
2022-11-27T15:17:34.423Z,100.00
2022-11-27T15:20:05.102Z,100.00
2022-11-27T15:22:44.531Z,100.00
2022-11-27T15:25:54.783Z,100.00
2022-11-27T15:28:40.110Z,100.00
2022-11-27T15:31:34.854Z,100.00
2022-11-27T15:34:02.507Z,100.00
2022-11-27T15:36:37.183Z,100.00
2022-11-27T15:39:19.444Z,100.00
2022-11-27T15:42:14.659Z,100.00
2022-11-27T15:44:43.063Z,100.00
2022-11-27T15:47:28.869Z,100.00
2022-11-27T15:49:56.561Z,100.00
2022-11-27T15:52:25.362Z,100.00
2022-11-27T15:54:55.408Z,100.00
2022-11-27T15:57:24.493Z,100.00
2022-11-27T15:59:52.446Z,100.00
2022-11-27T16:02:20.198Z,100.00
2022-11-27T16:04:47.688Z,100.00
2022-11-27T16:07:15.610Z,100.00
2022-11-27T16:09:43.789Z,100.00
2022-11-27T16:12:11.342Z,100.00
2022-11-27T16:14:39.337Z,100.00
2022-11-27T16:17:07.189Z,100.00
2022-11-27T16:19:34.736Z,100.00
2022-11-27T16:22:02.321Z,100.00
2022-11-27T16:24:30.131Z,100.00
2022-11-27T16:26:57.741Z,100.00
2022-11-27T16:29:25.275Z,100.00
2022-11-27T16:31:52.926Z,100.00
2022-11-27T16:34:20.530Z,100.00
2022-11-27T16:36:49.075Z,100.00
2022-11-27T16:39:17.639Z,100.00
2022-11-27T16:41:45.291Z,100.00
2022-11-27T16:44:16.201Z,100.00
2022-11-27T16:46:45.015Z,100.00
2022-11-27T16:49:15.851Z,100.00
2022-11-27T16:51:44.429Z,100.00
2022-11-27T16:54:13.660Z,100.00
2022-11-27T16:56:44.295Z,100.00
2022-11-27T16:59:14.927Z,100.00
2022-11-27T17:01:43.530Z,100.00
2022-11-27T17:04:20.040Z,100.00
2022-11-27T17:06:50.045Z,100.00
2022-11-27T17:09:18.388Z,100.00
2022-11-27T17:11:50.587Z,100.00
2022-11-27T17:14:20.659Z,100.00
2022-11-27T17:16:51.651Z,100.00
2022-11-27T17:19:23.094Z,100.00
2022-11-27T17:21:50.699Z,100.00
2022-11-27T17:24:18.773Z,100.00
2022-11-27T17:26:47.849Z,100.00
2022-11-27T17:29:17.827Z,96.40
2022-11-27T17:31:45.626Z,95.92
2022-11-27T17:34:17.051Z,95.54
2022-11-27T17:36:46.076Z,96.80
2022-11-27T17:39:15.489Z,98.92
2022-11-27T17:41:45.325Z,99.83
2022-11-27T17:44:17.831Z,100.00
2022-11-27T17:46:49.911Z,100.00
2022-11-27T17:49:17.811Z,100.00
2022-11-27T17:51:51.646Z,100.00
2022-11-27T17:54:20.385Z,100.00
2022-11-27T17:56:51.671Z,100.00
2022-11-27T17:59:25.663Z,100.00
2022-11-27T18:01:55.878Z,100.00
2022-11-27T18:04:24.713Z,100.00
2022-11-27T18:06:53.007Z,100.00
2022-11-27T18:09:23.675Z,100.00
2022-11-27T18:11:51.615Z,100.00
2022-11-27T18:14:19.065Z,100.00
2022-11-27T18:16:46.739Z,100.00
2022-11-27T18:19:14.456Z,100.00
2022-11-27T18:21:42.092Z,100.00
2022-11-27T18:24:25.477Z,100.00
2022-11-27T18:27:10.549Z,100.00
2022-11-27T18:29:44.500Z,100.00
2022-11-27T18:32:14.003Z,100.00
2022-11-27T18:34:42.390Z,100.00
2022-11-27T18:37:13.164Z,100.00
2022-11-27T18:39:40.916Z,100.00
2022-11-27T18:42:09.061Z,100.00
2022-11-27T18:44:44.402Z,100.00
2022-11-27T18:47:18.506Z,100.00
2022-11-27T18:49:47.951Z,100.00
2022-11-27T18:52:15.503Z,100.00
2022-11-27T18:54:46.765Z,100.00
2022-11-27T18:57:15.286Z,100.00
2022-11-27T18:59:45.049Z,100.00
2022-11-27T19:02:13.537Z,100.00
2022-11-27T19:04:43.100Z,100.00
2022-11-27T19:07:11.120Z,100.00
2022-11-27T19:09:41.512Z,100.00
2022-11-27T19:12:09.843Z,100.00
2022-11-27T19:14:40.424Z,100.00
2022-11-27T19:17:09.102Z,100.00
2022-11-27T19:20:00.259Z,100.00
2022-11-27T19:22:29.106Z,100.00
2022-11-27T19:25:04.721Z,100.00
2022-11-27T19:27:50.784Z,100.00
2022-11-27T19:30:24.922Z,100.00
2022-11-27T19:32:52.790Z,100.00
2022-11-27T19:35:24.560Z,100.00
2022-11-27T19:37:54.474Z,100.00
2022-11-27T19:40:21.941Z,100.00
2022-11-27T19:42:54.593Z,100.00
2022-11-27T19:45:28.735Z,100.00
2022-11-27T19:47:56.971Z,100.00
2022-11-27T19:50:24.542Z,100.00
2022-11-27T19:52:52.324Z,100.00
2022-11-27T19:55:19.782Z,100.00
2022-11-27T19:57:47.768Z,100.00
2022-11-27T20:00:16.852Z,100.00
2022-11-27T20:02:45.525Z,100.00
2022-11-27T20:05:13.060Z,100.00
2022-11-27T20:07:40.580Z,100.00
2022-11-27T20:10:08.339Z,100.00
2022-11-27T20:12:36.970Z,100.00
2022-11-27T20:15:07.664Z,100.00
2022-11-27T20:17:35.963Z,100.00
2022-11-27T20:20:04.116Z,100.00
2022-11-27T20:22:32.945Z,100.00
2022-11-27T20:25:19.097Z,100.00
2022-11-27T20:27:47.599Z,100.00
2022-11-27T20:30:15.570Z,100.00
2022-11-27T20:32:47.441Z,100.00
2022-11-27T20:35:15.786Z,100.00
2022-11-27T20:37:45.739Z,100.00
2022-11-27T20:40:13.437Z,100.00
2022-11-27T20:42:41.071Z,100.00
2022-11-27T20:45:08.800Z,100.00
2022-11-27T20:47:36.436Z,100.00
2022-11-27T20:50:05.744Z,100.00
2022-11-27T20:52:33.627Z,100.00
2022-11-27T20:55:01.149Z,100.00
2022-11-27T20:57:33.352Z,100.00
2022-11-27T21:00:01.224Z,100.00
2022-11-27T21:02:30.891Z,100.00
2022-11-27T21:04:59.027Z,100.00
2022-11-27T21:07:28.887Z,100.00
2022-11-27T21:09:59.887Z,100.00
2022-11-27T21:12:27.833Z,100.00
2022-11-27T21:14:56.460Z,100.00
2022-11-27T21:17:24.681Z,100.00
2022-11-27T21:19:53.098Z,100.00
2022-11-27T21:22:21.253Z,100.00
2022-11-27T21:24:52.817Z,100.00
2022-11-27T21:27:22.791Z,100.00
2022-11-27T21:29:51.068Z,100.00
2022-11-27T21:32:22.478Z,100.00
2022-11-27T21:34:49.962Z,100.00
2022-11-27T21:37:19.676Z,100.00
2022-11-27T21:39:49.960Z,100.00
2022-11-27T21:42:20.496Z,100.00
2022-11-27T21:44:48.275Z,100.00
2022-11-27T21:47:15.693Z,100.00
2022-11-27T21:49:44.289Z,100.00
2022-11-27T21:52:14.520Z,100.00
2022-11-27T21:54:50.928Z,100.00
2022-11-27T21:57:20.581Z,100.00
2022-11-27T21:59:48.061Z,100.00
2022-11-27T22:02:17.792Z,100.00
2022-11-27T22:04:45.431Z,100.00
2022-11-27T22:07:12.976Z,100.00
2022-11-27T22:09:40.543Z,100.00
2022-11-27T22:12:08.069Z,100.00
2022-11-27T22:14:35.546Z,100.00
2022-11-27T22:17:03.193Z,100.00
2022-11-27T22:19:36.261Z,100.00
2022-11-27T22:22:03.732Z,100.00
2022-11-27T22:24:33.901Z,100.00
2022-11-27T22:27:01.694Z,100.00
2022-11-27T22:29:31.656Z,100.00
2022-11-27T22:31:59.214Z,100.00
2022-11-27T22:34:29.104Z,100.00
2022-11-27T22:36:56.580Z,100.00
2022-11-27T22:39:32.767Z,100.00
2022-11-27T22:42:02.379Z,100.00
2022-11-27T22:44:29.913Z,100.00
2022-11-27T22:46:58.186Z,100.00
2022-11-27T22:49:30.150Z,100.00
2022-11-27T22:51:57.700Z,100.00
2022-11-27T22:54:25.203Z,100.00
2022-11-27T22:56:52.984Z,100.00
2022-11-27T22:59:36.326Z,100.00
2022-11-27T23:02:06.602Z,100.00
2022-11-27T23:04:34.981Z,100.00
2022-11-27T23:07:04.194Z,100.00
2022-11-27T23:09:32.016Z,100.00
2022-11-27T23:12:01.932Z,100.00
2022-11-27T23:14:32.051Z,100.00
2022-11-27T23:16:59.737Z,100.00
2022-11-27T23:19:27.442Z,100.00
2022-11-27T23:21:55.085Z,100.00
2022-11-27T23:24:23.588Z,100.00
2022-11-27T23:26:51.204Z,100.00
2022-11-27T23:29:18.763Z,100.00
2022-11-27T23:31:46.320Z,100.00
2022-11-27T23:34:15.436Z,100.00
2022-11-27T23:36:43.280Z,100.00
2022-11-27T23:39:13.958Z,100.00
2022-11-27T23:41:42.457Z,100.00
2022-11-27T23:44:09.869Z,100.00
2022-11-27T23:46:39.895Z,100.00
2022-11-27T23:49:07.893Z,100.00
2022-11-27T23:51:35.494Z,100.00
2022-11-27T23:54:08.179Z,100.00
2022-11-27T23:56:37.141Z,100.00
2022-11-27T23:59:05.499Z,100.00
